Time,TemperatureF,DewpointF,PressureIn,WindDirection,WindDirectionDegrees,WindSpeedMPH,WindSpeedGustMPH,Humidity,HourlyPrecipIn,Conditions,Clouds,dailyrainin,SoftwareType,DateUTC
2013-02-27 00:00:00,34.5,31.6,30.06,NNE,25,4.0,5.0,89,0.04,,,0.00,Wunderground v.1.15,2013-02-27 05:00:00,
2013-02-27 00:05:00,34.5,31.9,30.05,ENE,58,5.0,6.0,90,0.00,,,0.00,Wunderground v.1.15,2013-02-27 05:05:00,
2013-02-27 00:15:00,34.5,31.9,30.05,East,82,5.0,5.0,90,0.00,,,0.01,Wunderground v.1.15,2013-02-27 05:15:00,
2013-02-27 00:25:00,34.5,32.1,30.03,NE,45,6.0,7.0,91,0.00,,,0.01,Wunderground v.1.15,2013-02-27 05:25:00,
2013-02-27 00:35:00,34.4,32.3,30.01,NNW,340,5.0,6.0,92,0.07,,,0.03,Wunderground v.1.15,2013-02-27 05:35:00,
2013-02-27 00:45:00,34.5,32.4,30.00,NNW,336,5.0,5.0,92,0.06,,,0.04,Wunderground v.1.15,2013-02-27 05:45:00,
2013-02-27 00:55:00,34.6,32.8,30.00,NNE,19,5.0,7.0,93,0.06,,,0.04,Wunderground v.1.15,2013-02-27 05:55:00,
2013-02-27 01:00:00,34.7,32.9,30.00,NNW,340,5.0,5.0,93,0.04,,,0.05,Wunderground v.1.15,2013-02-27 06:00:00,
2013-02-27 01:10:00,34.8,33.0,30.00,North,6,5.0,5.0,93,0.08,,,0.06,Wunderground v.1.15,2013-02-27 06:10:00,
2013-02-27 01:20:00,34.8,33.0,30.00,North,7,5.0,5.0,93,0.04,,,0.06,Wunderground v.1.15,2013-02-27 06:20:00,
2013-02-27 01:30:00,34.9,33.1,30.00,North,1,6.0,6.0,93,0.00,,,0.07,Wunderground v.1.15,2013-02-27 06:30:00,
2013-02-27 01:40:00,35.0,33.2,30.00,NE,56,5.0,5.0,93,0.00,,,0.07,Wunderground v.1.15,2013-02-27 06:40:00,
2013-02-27 01:45:00,35.0,33.2,29.99,NNW,327,6.0,6.0,93,0.00,,,0.07,Wunderground v.1.15,2013-02-27 06:45:00,
2013-02-27 01:55:00,35.1,33.5,30.00,NW,318,4.0,7.0,94,0.09,,,0.09,Wunderground v.1.15,2013-02-27 06:55:00,
2013-02-27 02:05:00,35.3,33.7,30.00,NNE,29,5.0,5.0,94,0.24,,,0.12,Wunderground v.1.15,2013-02-27 07:05:00,
2013-02-27 02:15:00,35.3,33.7,29.98,NNE,12,5.0,6.0,94,0.45,,,0.18,Wunderground v.1.15,2013-02-27 07:15:00,
2013-02-27 02:25:00,35.3,33.7,29.97,East,82,6.0,6.0,94,0.17,,,0.22,Wunderground v.1.15,2013-02-27 07:25:00,
2013-02-27 02:35:00,35.3,33.7,29.97,NE,56,4.0,5.0,94,0.16,,,0.24,Wunderground v.1.15,2013-02-27 07:35:00,
2013-02-27 02:40:00,35.4,33.8,29.97,NNE,25,4.0,5.0,94,0.32,,,0.26,Wunderground v.1.15,2013-02-27 07:40:00,
2013-02-27 02:45:00,35.5,33.9,29.97,NNE,25,5.0,6.0,94,0.20,,,0.28,Wunderground v.1.15,2013-02-27 07:45:00,
2013-02-27 02:55:00,35.6,34.0,29.95,NE,37,5.0,6.0,94,0.10,,,0.29,Wunderground v.1.15,2013-02-27 07:55:00,
2013-02-27 03:05:00,35.7,34.1,29.95,NNE,16,4.0,7.0,94,0.08,,,0.30,Wunderground v.1.15,2013-02-27 08:05:00,
2013-02-27 03:10:00,35.8,34.5,29.94,ENE,65,4.0,5.0,95,0.07,,,0.31,Wunderground v.1.15,2013-02-27 08:10:00,
2013-02-27 03:20:00,36.0,34.7,29.93,NE,46,4.0,4.0,95,0.12,,,0.33,Wunderground v.1.15,2013-02-27 08:20:00,
2013-02-27 03:30:00,36.1,34.8,29.92,North,352,4.0,8.0,95,0.10,,,0.34,Wunderground v.1.15,2013-02-27 08:30:00,
2013-02-27 03:40:00,36.3,35.0,29.91,NNE,16,4.0,5.0,95,0.11,,,0.36,Wunderground v.1.15,2013-02-27 08:40:00,
2013-02-27 03:50:00,36.4,35.1,29.91,North,11,5.0,5.0,95,0.09,,,0.37,Wunderground v.1.15,2013-02-27 08:50:00,
2013-02-27 04:00:00,36.6,35.3,29.90,NNW,339,5.0,5.0,95,0.04,,,0.37,Wunderground v.1.15,2013-02-27 09:00:00,
2013-02-27 04:05:00,36.7,35.4,29.90,North,354,7.0,7.0,95,0.04,,,0.38,Wunderground v.1.15,2013-02-27 09:05:00,
2013-02-27 04:15:00,36.9,35.6,29.89,North,349,6.0,8.0,95,0.04,,,0.38,Wunderground v.1.15,2013-02-27 09:15:00,
2013-02-27 04:25:00,37.0,35.7,29.88,NNW,337,5.0,8.0,95,0.00,,,0.38,Wunderground v.1.15,2013-02-27 09:25:00,
2013-02-27 04:35:00,37.2,35.9,29.87,NNE,32,6.0,9.0,95,0.00,,,0.38,Wunderground v.1.15,2013-02-27 09:35:00,
2013-02-27 04:40:00,37.3,36.0,29.87,ENE,58,5.0,5.0,95,0.00,,,0.38,Wunderground v.1.15,2013-02-27 09:40:00,
2013-02-27 04:50:00,37.5,36.2,29.87,East,79,4.0,6.0,95,0.00,,,0.38,Wunderground v.1.15,2013-02-27 09:50:00,
2013-02-27 05:00:00,37.8,36.5,29.86,NNW,335,5.0,5.0,95,0.00,,,0.39,Wunderground v.1.15,2013-02-27 10:00:00,
2013-02-27 05:05:00,37.9,36.6,29.87,ENE,58,5.0,6.0,95,0.00,,,0.39,Wunderground v.1.15,2013-02-27 10:05:00,
2013-02-27 05:15:00,38.1,36.8,29.86,NNE,13,6.0,6.0,95,0.00,,,0.39,Wunderground v.1.15,2013-02-27 10:15:00,
2013-02-27 05:25:00,38.3,37.0,29.85,NNE,18,7.0,7.0,95,0.00,,,0.40,Wunderground v.1.15,2013-02-27 10:25:00,
2013-02-27 05:35:00,38.3,37.0,29.85,NNE,20,6.0,7.0,95,0.04,,,0.41,Wunderground v.1.15,2013-02-27 10:35:00,
2013-02-27 05:45:00,38.4,37.1,29.84,NNE,20,5.0,7.0,95,0.07,,,0.42,Wunderground v.1.15,2013-02-27 10:45:00,
2013-02-27 05:55:00,38.7,37.4,29.83,NNE,21,6.0,6.0,95,0.05,,,0.42,Wunderground v.1.15,2013-02-27 10:55:00,
2013-02-27 06:05:00,38.9,37.6,29.82,NW,319,6.0,6.0,95,0.00,,,0.42,Wunderground v.1.15,2013-02-27 11:05:00,
2013-02-27 06:15:00,39.2,38.2,29.82,NNW,331,6.0,7.0,96,0.00,,,0.43,Wunderground v.1.15,2013-02-27 11:15:00,
2013-02-27 06:25:00,39.3,38.0,29.82,NNW,335,5.0,7.0,95,0.00,,,0.43,Wunderground v.1.15,2013-02-27 11:25:00,
2013-02-27 06:30:00,39.5,38.5,29.82,North,354,6.0,6.0,96,0.00,,,0.44,Wunderground v.1.15,2013-02-27 11:30:00,
2013-02-27 06:35:00,39.5,38.2,29.82,North,11,6.0,6.0,95,0.00,,,0.44,Wunderground v.1.15,2013-02-27 11:35:00,
2013-02-27 06:45:00,39.7,38.7,29.82,ENE,57,5.0,5.0,96,0.05,,,0.45,Wunderground v.1.15,2013-02-27 11:45:00,
2013-02-27 06:50:00,39.8,38.8,29.82,NNE,28,6.0,9.0,96,0.09,,,0.46,Wunderground v.1.15,2013-02-27 11:50:00,
2013-02-27 07:00:00,39.9,38.6,29.81,ENE,62,5.0,5.0,95,0.26,,,0.50,Wunderground v.1.15,2013-02-27 12:00:00,
2013-02-27 07:10:00,40.1,39.1,29.80,NE,51,7.0,7.0,96,0.21,,,0.53,Wunderground v.1.15,2013-02-27 12:10:00,
2013-02-27 07:15:00,40.1,38.8,29.80,North,350,5.0,7.0,95,0.17,,,0.55,Wunderground v.1.15,2013-02-27 12:15:00,
2013-02-27 07:25:00,40.2,39.2,29.80,NNE,16,4.0,6.0,96,0.25,,,0.58,Wunderground v.1.15,2013-02-27 12:25:00,
2013-02-27 07:35:00,40.4,39.4,29.79,NNE,22,4.0,4.0,96,0.16,,,0.60,Wunderground v.1.15,2013-02-27 12:35:00,
2013-02-27 07:45:00,40.5,39.4,29.78,North,1,4.0,4.0,96,0.12,,,0.62,Wunderground v.1.15,2013-02-27 12:45:00,
2013-02-27 07:50:00,40.6,39.5,29.78,North,4,4.0,6.0,96,0.11,,,0.63,Wunderground v.1.15,2013-02-27 12:50:00,
2013-02-27 08:00:00,40.9,39.8,29.78,North,1,5.0,5.0,96,0.11,,,0.65,Wunderground v.1.15,2013-02-27 13:00:00,
2013-02-27 08:10:00,41.2,40.1,29.78,ENE,65,6.0,8.0,96,0.11,,,0.67,Wunderground v.1.15,2013-02-27 13:10:00,
2013-02-27 08:20:00,41.4,40.3,29.77,NNE,23,5.0,5.0,96,0.10,,,0.69,Wunderground v.1.15,2013-02-27 13:20:00,
2013-02-27 08:25:00,41.5,40.4,29.77,NE,41,3.0,5.0,96,0.12,,,0.70,Wunderground v.1.15,2013-02-27 13:25:00,
2013-02-27 08:35:00,41.8,40.7,29.75,NNE,20,4.0,6.0,96,0.22,,,0.73,Wunderground v.1.15,2013-02-27 13:35:00,
2013-02-27 08:45:00,42.2,41.1,29.75,North,358,6.0,6.0,96,0.07,,,0.74,Wunderground v.1.15,2013-02-27 13:45:00,
2013-02-27 08:55:00,42.5,41.4,29.74,East,82,5.0,6.0,96,0.21,,,0.77,Wunderground v.1.15,2013-02-27 13:55:00,
2013-02-27 09:05:00,42.7,41.6,29.73,East,80,4.0,9.0,96,0.09,,,0.78,Wunderground v.1.15,2013-02-27 14:05:00,
2013-02-27 09:15:00,43.0,41.7,29.72,NNE,25,7.0,9.0,95,0.12,,,0.80,Wunderground v.1.15,2013-02-27 14:15:00,
2013-02-27 09:20:00,43.0,41.7,29.72,WNW,300,6.0,6.0,95,0.10,,,0.80,Wunderground v.1.15,2013-02-27 14:20:00,
2013-02-27 09:30:00,43.2,41.9,29.71,NE,37,8.0,8.0,95,0.09,,,0.82,Wunderground v.1.15,2013-02-27 14:30:00,
2013-02-27 09:40:00,43.2,41.6,29.71,East,86,6.0,11.0,94,0.16,,,0.85,Wunderground v.1.15,2013-02-27 14:40:00,
2013-02-27 09:50:00,43.3,41.7,29.71,North,11,9.0,10.0,94,0.13,,,0.87,Wunderground v.1.15,2013-02-27 14:50:00,
2013-02-27 10:00:00,43.3,41.7,29.70,ENE,60,9.0,10.0,94,0.16,,,0.89,Wunderground v.1.15,2013-02-27 15:00:00,
2013-02-27 10:10:00,43.3,41.4,29.69,ENE,58,10.0,10.0,93,0.11,,,0.92,Wunderground v.1.15,2013-02-27 15:10:00,
2013-02-27 10:20:00,43.2,41.6,29.68,NNE,32,10.0,10.0,94,0.13,,,0.94,Wunderground v.1.15,2013-02-27 15:20:00,
2013-02-27 10:30:00,43.1,41.5,29.68,ENE,61,10.0,10.0,94,0.10,,,0.95,Wunderground v.1.15,2013-02-27 15:30:00,
2013-02-27 10:40:00,43.1,41.5,29.68,ENE,73,9.0,9.0,94,0.07,,,0.96,Wunderground v.1.15,2013-02-27 15:40:00,
2013-02-27 10:45:00,42.9,41.3,29.68,East,93,9.0,10.0,94,0.07,,,0.97,Wunderground v.1.15,2013-02-27 15:45:00,
2013-02-27 10:55:00,42.9,41.3,29.67,NE,45,9.0,16.0,94,0.28,,,1.00,Wunderground v.1.15,2013-02-27 15:55:00,
2013-02-27 11:05:00,42.6,41.3,29.68,NE,47,7.0,10.0,95,0.09,,,1.02,Wunderground v.1.15,2013-02-27 16:05:00,
2013-02-27 11:15:00,42.7,41.4,29.68,SSW,202,6.0,7.0,95,0.19,,,1.05,Wunderground v.1.15,2013-02-27 16:15:00,
2013-02-27 11:20:00,42.7,41.4,29.68,NNE,30,6.0,14.0,95,0.15,,,1.06,Wunderground v.1.15,2013-02-27 16:20:00,
2013-02-27 11:30:00,42.8,41.5,29.67,NE,38,8.0,8.0,95,0.08,,,1.08,Wunderground v.1.15,2013-02-27 16:30:00,
2013-02-27 11:40:00,42.8,41.5,29.66,ENE,77,7.0,7.0,95,0.08,,,1.09,Wunderground v.1.15,2013-02-27 16:40:00,
2013-02-27 11:50:00,42.9,41.3,29.65,NE,37,10.0,11.0,94,0.08,,,1.10,Wunderground v.1.15,2013-02-27 16:50:00,
2013-02-27 12:00:00,42.7,41.1,29.64,ENE,62,8.0,8.0,94,0.07,,,1.11,Wunderground v.1.15,2013-02-27 17:00:00,
2013-02-27 12:10:00,42.5,41.2,29.64,NE,53,9.0,9.0,95,0.05,,,1.12,Wunderground v.1.15,2013-02-27 17:10:00,
2013-02-27 12:20:00,42.3,41.2,29.63,North,9,7.0,7.0,96,0.16,,,1.14,Wunderground v.1.15,2013-02-27 17:20:00,
2013-02-27 12:25:00,42.2,41.1,29.63,NE,40,7.0,9.0,96,0.47,,,1.18,Wunderground v.1.15,2013-02-27 17:25:00,
2013-02-27 12:30:00,42.3,41.2,29.64,NE,37,8.0,8.0,96,0.47,,,1.21,Wunderground v.1.15,2013-02-27 17:30:00,
2013-02-27 12:40:00,42.1,41.0,29.63,ENE,58,6.0,6.0,96,0.43,,,1.27,Wunderground v.1.15,2013-02-27 17:40:00,
2013-02-27 12:50:00,42.0,40.9,29.63,NE,39,6.0,6.0,96,0.24,,,1.31,Wunderground v.1.15,2013-02-27 17:50:00,
2013-02-27 12:55:00,42.0,40.9,29.64,ESE,113,6.0,6.0,96,0.20,,,1.33,Wunderground v.1.15,2013-02-27 17:55:00,
2013-02-27 13:05:00,42.0,40.9,29.63,ENE,75,6.0,9.0,96,0.13,,,1.36,Wunderground v.1.15,2013-02-27 18:05:00,
2013-02-27 13:15:00,42.0,40.9,29.63,NE,49,8.0,12.0,96,0.06,,,1.37,Wunderground v.1.15,2013-02-27 18:15:00,
2013-02-27 13:25:00,42.1,41.0,29.62,East,80,9.0,13.0,96,0.09,,,1.38,Wunderground v.1.15,2013-02-27 18:25:00,
2013-02-27 13:35:00,42.1,41.0,29.62,NE,51,7.0,8.0,96,0.14,,,1.41,Wunderground v.1.15,2013-02-27 18:35:00,
2013-02-27 13:45:00,42.1,41.0,29.61,NE,37,7.0,7.0,96,0.11,,,1.42,Wunderground v.1.15,2013-02-27 18:45:00,
2013-02-27 13:50:00,42.2,41.1,29.61,East,86,7.0,7.0,96,0.07,,,1.43,Wunderground v.1.15,2013-02-27 18:50:00,
2013-02-27 14:00:00,42.2,41.1,29.61,NNE,27,6.0,6.0,96,0.05,,,1.43,Wunderground v.1.15,2013-02-27 19:00:00,
2013-02-27 14:10:00,42.3,41.2,29.61,NNE,15,7.0,11.0,96,0.00,,,1.43,Wunderground v.1.15,2013-02-27 19:10:00,
2013-02-27 14:20:00,42.2,41.1,29.61,ENE,70,6.0,6.0,96,0.00,,,1.44,Wunderground v.1.15,2013-02-27 19:20:00,
2013-02-27 14:30:00,42.2,41.4,29.59,NNE,18,6.0,7.0,97,0.00,,,1.44,Wunderground v.1.15,2013-02-27 19:30:00,
2013-02-27 14:35:00,42.3,41.5,29.59,ENE,69,6.0,7.0,97,0.00,,,1.44,Wunderground v.1.15,2013-02-27 19:35:00,
2013-02-27 14:40:00,42.2,41.4,29.59,ENE,57,6.0,7.0,97,0.00,,,1.44,Wunderground v.1.15,2013-02-27 19:40:00,
2013-02-27 14:50:00,42.3,41.5,29.59,ESE,118,6.0,6.0,97,0.00,,,1.44,Wunderground v.1.15,2013-02-27 19:50:00,
2013-02-27 14:55:00,42.2,41.4,29.59,NE,56,6.0,8.0,97,0.00,,,1.44,Wunderground v.1.15,2013-02-27 19:55:00,
2013-02-27 15:05:00,42.3,41.5,29.58,ENE,74,7.0,7.0,97,0.00,,,1.44,Wunderground v.1.15,2013-02-27 20:05:00,
2013-02-27 15:10:00,42.2,41.4,29.58,North,4,7.0,7.0,97,0.00,,,1.44,Wunderground v.1.15,2013-02-27 20:10:00,
2013-02-27 15:20:00,42.2,41.4,29.57,ENE,77,6.0,10.0,97,0.00,,,1.44,Wunderground v.1.15,2013-02-27 20:20:00,
2013-02-27 15:30:00,42.3,41.5,29.57,East,92,7.0,7.0,97,0.00,,,1.44,Wunderground v.1.15,2013-02-27 20:30:00,
2013-02-27 15:40:00,42.3,41.5,29.57,NNE,19,6.0,6.0,97,0.00,,,1.44,Wunderground v.1.15,2013-02-27 20:40:00,
2013-02-27 15:50:00,42.3,41.5,29.58,NE,51,5.0,7.0,97,0.00,,,1.44,Wunderground v.1.15,2013-02-27 20:50:00,
2013-02-27 16:00:00,42.4,41.6,29.58,ENE,62,6.0,6.0,97,0.00,,,1.45,Wunderground v.1.15,2013-02-27 21:00:00,
2013-02-27 16:05:00,42.3,41.5,29.58,NE,51,6.0,7.0,97,0.00,,,1.45,Wunderground v.1.15,2013-02-27 21:05:00,
2013-02-27 16:15:00,42.3,41.5,29.57,East,85,5.0,6.0,97,0.00,,,1.45,Wunderground v.1.15,2013-02-27 21:15:00,
2013-02-27 16:25:00,42.2,41.4,29.57,NE,53,5.0,5.0,97,0.00,,,1.45,Wunderground v.1.15,2013-02-27 21:25:00,
2013-02-27 16:35:00,42.0,41.2,29.57,NE,46,4.0,6.0,97,0.00,,,1.45,Wunderground v.1.15,2013-02-27 21:35:00,
2013-02-27 16:45:00,42.0,41.2,29.58,SE,142,2.0,4.0,97,0.00,,,1.45,Wunderground v.1.15,2013-02-27 21:45:00,
2013-02-27 16:55:00,41.9,41.1,29.58,NNE,27,3.0,8.0,97,0.00,,,1.45,Wunderground v.1.15,2013-02-27 21:55:00,
2013-02-27 17:05:00,41.7,40.9,29.57,NNE,19,3.0,5.0,97,0.00,,,1.46,Wunderground v.1.15,2013-02-27 22:05:00,
2013-02-27 17:15:00,41.6,40.8,29.57,NNE,21,5.0,5.0,97,0.00,,,1.46,Wunderground v.1.15,2013-02-27 22:15:00,
2013-02-27 17:25:00,41.5,40.7,29.56,NE,37,4.0,6.0,97,0.00,,,1.46,Wunderground v.1.15,2013-02-27 22:25:00,
2013-02-27 17:30:00,41.5,40.7,29.56,NNW,333,4.0,4.0,97,0.00,,,1.46,Wunderground v.1.15,2013-02-27 22:30:00,
2013-02-27 17:40:00,41.4,40.6,29.57,NE,41,3.0,3.0,97,0.00,,,1.46,Wunderground v.1.15,2013-02-27 22:40:00,
2013-02-27 17:50:00,41.5,40.7,29.56,NNE,23,4.0,4.0,97,0.00,,,1.46,Wunderground v.1.15,2013-02-27 22:50:00,
2013-02-27 18:00:00,41.4,40.9,29.57,ENE,63,3.0,3.0,98,0.00,,,1.46,Wunderground v.1.15,2013-02-27 23:00:00,
2013-02-27 18:10:00,41.5,41.0,29.57,NNE,20,4.0,4.0,98,0.00,,,1.46,Wunderground v.1.15,2013-02-27 23:10:00,
2013-02-27 18:15:00,41.5,41.0,29.57,NNE,22,2.0,4.0,98,0.00,,,1.46,Wunderground v.1.15,2013-02-27 23:15:00,
2013-02-27 18:25:00,41.5,41.0,29.58,NNE,19,2.0,2.0,98,0.00,,,1.46,Wunderground v.1.15,2013-02-27 23:25:00,
2013-02-27 18:35:00,41.5,41.0,29.59,NNE,22,1.0,2.0,98,0.00,,,1.46,Wunderground v.1.15,2013-02-27 23:35:00,
2013-02-27 18:45:00,41.2,40.7,29.58,North,359,2.0,3.0,98,0.00,,,1.46,Wunderground v.1.15,2013-02-27 23:45:00,
2013-02-27 18:55:00,40.9,40.1,29.58,NNW,347,3.0,3.0,97,0.00,,,1.47,Wunderground v.1.15,2013-02-27 23:55:00,
2013-02-27 19:00:00,40.6,39.8,29.58,NW,314,1.0,1.0,97,0.00,,,1.47,Wunderground v.1.15,2013-02-28 00:00:00,
2013-02-27 19:10:00,40.4,39.6,29.58,WNW,287,1.0,2.0,97,0.00,,,1.47,Wunderground v.1.15,2013-02-28 00:10:00,
2013-02-27 19:20:00,40.3,39.8,29.58,NW,312,1.0,1.0,98,0.00,,,1.47,Wunderground v.1.15,2013-02-28 00:20:00,
2013-02-27 19:30:00,40.2,39.7,29.58,NNW,328,1.0,1.0,98,0.00,,,1.47,Wunderground v.1.15,2013-02-28 00:30:00,
2013-02-27 19:40:00,40.1,39.6,29.58,NW,323,2.0,2.0,98,0.00,,,1.47,Wunderground v.1.15,2013-02-28 00:40:00,
2013-02-27 19:50:00,39.9,39.4,29.58,NW,320,2.0,2.0,98,0.00,,,1.47,Wunderground v.1.15,2013-02-28 00:50:00,
2013-02-27 20:00:00,39.7,39.2,29.58,West,276,1.0,1.0,98,0.00,,,1.47,Wunderground v.1.15,2013-02-28 01:00:00,
2013-02-27 20:10:00,39.5,39.0,29.58,West,270,1.0,1.0,98,0.00,,,1.47,Wunderground v.1.15,2013-02-28 01:10:00,
2013-02-27 20:15:00,39.2,38.7,29.58,West,270,1.0,1.0,98,0.00,,,1.47,Wunderground v.1.15,2013-02-28 01:15:00,
2013-02-27 20:25:00,39.0,38.5,29.58,West,276,0.0,1.0,98,0.00,,,1.47,Wunderground v.1.15,2013-02-28 01:25:00,
2013-02-27 20:35:00,39.0,38.5,29.58,WNW,290,1.0,1.0,98,0.00,,,1.47,Wunderground v.1.15,2013-02-28 01:35:00,
2013-02-27 20:45:00,39.1,38.6,29.58,WNW,282,1.0,1.0,98,0.00,,,1.47,Wunderground v.1.15,2013-02-28 01:45:00,
2013-02-27 20:55:00,39.0,38.5,29.59,NW,316,0.0,0.0,98,0.00,,,1.47,Wunderground v.1.15,2013-02-28 01:55:00,
2013-02-27 21:05:00,39.1,38.6,29.59,West,269,1.0,1.0,98,0.00,,,1.48,Wunderground v.1.15,2013-02-28 02:05:00,
2013-02-27 21:15:00,38.9,38.4,29.59,WNW,284,1.0,1.0,98,0.00,,,1.48,Wunderground v.1.15,2013-02-28 02:15:00,
2013-02-27 21:20:00,38.9,38.4,29.59,WNW,287,1.0,1.0,98,0.00,,,1.48,Wunderground v.1.15,2013-02-28 02:20:00,
2013-02-27 21:30:00,38.9,38.4,29.59,WNW,287,0.0,0.0,98,0.00,,,1.48,Wunderground v.1.15,2013-02-28 02:30:00,
2013-02-27 21:40:00,38.9,38.4,29.59,West,264,0.0,0.0,98,0.00,,,1.48,Wunderground v.1.15,2013-02-28 02:40:00,
2013-02-27 21:50:00,38.7,38.2,29.60,West,264,0.0,0.0,98,0.00,,,1.48,Wunderground v.1.15,2013-02-28 02:50:00,
2013-02-27 22:00:00,38.7,38.2,29.60,WSW,238,0.0,0.0,98,0.00,,,1.48,Wunderground v.1.15,2013-02-28 03:00:00,
2013-02-27 22:10:00,38.9,38.4,29.61,West,277,0.0,0.0,98,0.00,,,1.48,Wunderground v.1.15,2013-02-28 03:10:00,
2013-02-27 22:20:00,38.9,38.4,29.60,WSW,249,0.0,0.0,98,0.00,,,1.48,Wunderground v.1.15,2013-02-28 03:20:00,
2013-02-27 22:30:00,38.8,38.3,29.61,WSW,248,0.0,0.0,98,0.00,,,1.48,Wunderground v.1.15,2013-02-28 03:30:00,
2013-02-27 22:35:00,38.6,38.1,29.61,WNW,287,0.0,0.0,98,0.00,,,1.48,Wunderground v.1.15,2013-02-28 03:35:00,
2013-02-27 22:45:00,38.6,38.1,29.60,NNW,330,0.0,1.0,98,0.00,,,1.48,Wunderground v.1.15,2013-02-28 03:45:00,
2013-02-27 22:55:00,37.9,37.4,29.60,NNW,329,0.0,1.0,98,0.00,,,1.48,Wunderground v.1.15,2013-02-28 03:55:00,
2013-02-27 23:05:00,38.3,37.8,29.60,NW,316,0.0,0.0,98,0.00,,,1.48,Wunderground v.1.15,2013-02-28 04:05:00,
2013-02-27 23:15:00,38.3,37.8,29.60,NW,316,0.0,0.0,98,0.00,,,1.48,Wunderground v.1.15,2013-02-28 04:15:00,
2013-02-27 23:25:00,38.3,37.8,29.60,WSW,248,0.0,0.0,98,0.00,,,1.48,Wunderground v.1.15,2013-02-28 04:25:00,
2013-02-27 23:30:00,38.3,37.8,29.60,West,272,0.0,0.0,98,0.00,,,1.48,Wunderground v.1.15,2013-02-28 04:30:00,
2013-02-27 23:35:00,38.2,37.7,29.60,SW,217,0.0,1.0,98,0.00,,,1.48,Wunderground v.1.15,2013-02-28 04:35:00,
2013-02-27 23:45:00,38.2,37.7,29.60,SW,217,0.0,0.0,98,0.00,,,1.48,Wunderground v.1.15,2013-02-28 04:45:00,
2013-02-27 23:50:00,38.1,37.6,29.60,SW,218,0.0,0.0,98,0.00,,,1.48,Wunderground v.1.15,2013-02-28 04:50:00,